sensor_id;sensor_type;location;lat;lon;timestamp;P1;durP1;ratioP1;P2;durP2;ratioP2
23117;SDS011;11728;50.624;6.014;2022-10-17T00:04:13;7.68;;;3.80;;
23117;SDS011;11728;50.624;6.014;2022-10-17T00:09:34;8.07;;;4.07;;
23117;SDS011;11728;50.624;6.014;2022-10-17T00:14:55;8.88;;;3.92;;
23117;SDS011;11728;50.624;6.014;2022-10-17T00:20:16;13.75;;;3.80;;
23117;SDS011;11728;50.624;6.014;2022-10-17T00:25:37;6.95;;;3.70;;
23117;SDS011;11728;50.624;6.014;2022-10-17T00:30:58;8.38;;;3.85;;
23117;SDS011;11728;50.624;6.014;2022-10-17T00:36:21;12.77;;;3.97;;
23117;SDS011;11728;50.624;6.014;2022-10-17T00:41:44;6.35;;;3.80;;
23117;SDS011;11728;50.624;6.014;2022-10-17T00:47:06;6.85;;;3.72;;
23117;SDS011;11728;50.624;6.014;2022-10-17T00:52:30;6.28;;;3.83;;
23117;SDS011;11728;50.624;6.014;2022-10-17T00:57:51;7.75;;;3.58;;
23117;SDS011;11728;50.624;6.014;2022-10-17T01:03:13;8.02;;;3.45;;
23117;SDS011;11728;50.624;6.014;2022-10-17T01:08:33;7.50;;;3.63;;
23117;SDS011;11728;50.624;6.014;2022-10-17T01:14:00;6.47;;;3.42;;
23117;SDS011;11728;50.624;6.014;2022-10-17T01:25:10;4.72;;;3.30;;
23117;SDS011;11728;50.624;6.014;2022-10-17T01:36:36;8.80;;;3.20;;
23117;SDS011;11728;50.624;6.014;2022-10-17T01:42:23;6.57;;;3.15;;
23117;SDS011;11728;50.624;6.014;2022-10-17T01:47:50;5.35;;;3.17;;
23117;SDS011;11728;50.624;6.014;2022-10-17T01:53:15;6.03;;;3.03;;
23117;SDS011;11728;50.624;6.014;2022-10-17T01:59:24;7.63;;;3.42;;
23117;SDS011;11728;50.624;6.014;2022-10-17T02:04:33;9.43;;;3.42;;
23117;SDS011;11728;50.624;6.014;2022-10-17T02:09:55;7.13;;;3.33;;
23117;SDS011;11728;50.624;6.014;2022-10-17T02:20:39;6.35;;;3.20;;
23117;SDS011;11728;50.624;6.014;2022-10-17T02:37:01;11.65;;;3.78;;
23117;SDS011;11728;50.624;6.014;2022-10-17T02:42:26;6.70;;;4.00;;
23117;SDS011;11728;50.624;6.014;2022-10-17T02:48:03;5.82;;;3.75;;
23117;SDS011;11728;50.624;6.014;2022-10-17T02:53:33;9.20;;;3.45;;
23117;SDS011;11728;50.624;6.014;2022-10-17T02:59:02;8.50;;;3.60;;
23117;SDS011;11728;50.624;6.014;2022-10-17T03:04:24;7.05;;;3.78;;
23117;SDS011;11728;50.624;6.014;2022-10-17T03:09:45;9.38;;;3.65;;
23117;SDS011;11728;50.624;6.014;2022-10-17T03:15:06;6.35;;;3.92;;
23117;SDS011;11728;50.624;6.014;2022-10-17T03:20:28;8.13;;;3.60;;
23117;SDS011;11728;50.624;6.014;2022-10-17T03:25:49;6.32;;;3.70;;
23117;SDS011;11728;50.624;6.014;2022-10-17T03:31:12;7.18;;;3.85;;
23117;SDS011;11728;50.624;6.014;2022-10-17T03:36:35;8.30;;;3.47;;
23117;SDS011;11728;50.624;6.014;2022-10-17T03:41:57;7.55;;;3.90;;
23117;SDS011;11728;50.624;6.014;2022-10-17T03:47:18;6.72;;;3.67;;
23117;SDS011;11728;50.624;6.014;2022-10-17T03:52:40;6.13;;;3.60;;
23117;SDS011;11728;50.624;6.014;2022-10-17T03:58:02;7.88;;;3.53;;
23117;SDS011;11728;50.624;6.014;2022-10-17T04:03:23;7.65;;;3.67;;
23117;SDS011;11728;50.624;6.014;2022-10-17T04:08:45;8.93;;;4.03;;
23117;SDS011;11728;50.624;6.014;2022-10-17T04:14:11;6.68;;;3.78;;
23117;SDS011;11728;50.624;6.014;2022-10-17T04:19:33;7.13;;;3.60;;
23117;SDS011;11728;50.624;6.014;2022-10-17T04:24:54;7.75;;;3.90;;
23117;SDS011;11728;50.624;6.014;2022-10-17T04:30:21;7.28;;;3.40;;
23117;SDS011;11728;50.624;6.014;2022-10-17T04:35:42;6.03;;;3.50;;
23117;SDS011;11728;50.624;6.014;2022-10-17T04:41:04;10.25;;;3.83;;
23117;SDS011;11728;50.624;6.014;2022-10-17T04:46:26;6.43;;;3.70;;
23117;SDS011;11728;50.624;6.014;2022-10-17T04:51:47;8.40;;;3.67;;
23117;SDS011;11728;50.624;6.014;2022-10-17T04:57:17;6.63;;;3.47;;
23117;SDS011;11728;50.624;6.014;2022-10-17T05:03:14;10.68;;;3.90;;
23117;SDS011;11728;50.624;6.014;2022-10-17T05:08:36;6.80;;;3.58;;
23117;SDS011;11728;50.624;6.014;2022-10-17T05:13:58;9.40;;;3.45;;
23117;SDS011;11728;50.624;6.014;2022-10-17T05:19:21;6.63;;;3.45;;
23117;SDS011;11728;50.624;6.014;2022-10-17T05:24:44;10.23;;;3.50;;
23117;SDS011;11728;50.624;6.014;2022-10-17T05:30:05;6.43;;;3.58;;
23117;SDS011;11728;50.624;6.014;2022-10-17T05:35:28;7.78;;;3.22;;
23117;SDS011;11728;50.624;6.014;2022-10-17T05:40:50;8.07;;;3.60;;
23117;SDS011;11728;50.624;6.014;2022-10-17T05:46:11;7.53;;;3.55;;
23117;SDS011;11728;50.624;6.014;2022-10-17T05:51:32;9.55;;;3.67;;
23117;SDS011;11728;50.624;6.014;2022-10-17T05:56:55;9.68;;;3.58;;
23117;SDS011;11728;50.624;6.014;2022-10-17T06:02:20;10.15;;;3.17;;
23117;SDS011;11728;50.624;6.014;2022-10-17T06:07:41;8.23;;;3.50;;
23117;SDS011;11728;50.624;6.014;2022-10-17T06:13:03;6.45;;;3.13;;
23117;SDS011;11728;50.624;6.014;2022-10-17T06:18:24;7.97;;;3.17;;
23117;SDS011;11728;50.624;6.014;2022-10-17T06:23:45;5.93;;;3.05;;
23117;SDS011;11728;50.624;6.014;2022-10-17T06:29:22;6.90;;;3.45;;
23117;SDS011;11728;50.624;6.014;2022-10-17T06:34:46;6.40;;;3.05;;
23117;SDS011;11728;50.624;6.014;2022-10-17T06:40:07;5.97;;;3.08;;
23117;SDS011;11728;50.624;6.014;2022-10-17T06:45:31;8.35;;;3.47;;
23117;SDS011;11728;50.624;6.014;2022-10-17T06:51:03;10.85;;;3.17;;
23117;SDS011;11728;50.624;6.014;2022-10-17T06:56:33;6.90;;;3.10;;
23117;SDS011;11728;50.624;6.014;2022-10-17T07:02:14;8.20;;;3.45;;
23117;SDS011;11728;50.624;6.014;2022-10-17T07:07:36;6.75;;;3.45;;
23117;SDS011;11728;50.624;6.014;2022-10-17T07:12:58;6.70;;;3.10;;
23117;SDS011;11728;50.624;6.014;2022-10-17T07:18:20;6.07;;;2.70;;
23117;SDS011;11728;50.624;6.014;2022-10-17T07:23:42;4.13;;;2.70;;
23117;SDS011;11728;50.624;6.014;2022-10-17T07:29:03;8.63;;;2.60;;
23117;SDS011;11728;50.624;6.014;2022-10-17T07:34:36;9.32;;;3.03;;
23117;SDS011;11728;50.624;6.014;2022-10-17T07:39:58;5.32;;;2.60;;
23117;SDS011;11728;50.624;6.014;2022-10-17T07:45:19;6.80;;;2.50;;
23117;SDS011;11728;50.624;6.014;2022-10-17T07:50:41;6.38;;;2.58;;
23117;SDS011;11728;50.624;6.014;2022-10-17T07:56:05;6.20;;;2.45;;
23117;SDS011;11728;50.624;6.014;2022-10-17T08:01:27;7.28;;;2.60;;
23117;SDS011;11728;50.624;6.014;2022-10-17T08:06:48;6.60;;;2.20;;
23117;SDS011;11728;50.624;6.014;2022-10-17T08:12:09;4.93;;;2.83;;
23117;SDS011;11728;50.624;6.014;2022-10-17T08:17:30;8.35;;;2.65;;
23117;SDS011;11728;50.624;6.014;2022-10-17T08:22:52;5.78;;;2.53;;
23117;SDS011;11728;50.624;6.014;2022-10-17T08:28:13;8.27;;;2.05;;
23117;SDS011;11728;50.624;6.014;2022-10-17T08:33:34;4.63;;;2.10;;
23117;SDS011;11728;50.624;6.014;2022-10-17T08:38:55;7.13;;;2.20;;
23117;SDS011;11728;50.624;6.014;2022-10-17T08:50:58;6.85;;;2.13;;
23117;SDS011;11728;50.624;6.014;2022-10-17T08:56:04;4.85;;;2.00;;
23117;SDS011;11728;50.624;6.014;2022-10-17T09:01:35;10.27;;;2.30;;
23117;SDS011;11728;50.624;6.014;2022-10-17T09:07:26;4.43;;;2.13;;
23117;SDS011;11728;50.624;6.014;2022-10-17T09:18:45;8.10;;;2.28;;
23117;SDS011;11728;50.624;6.014;2022-10-17T09:24:29;6.53;;;2.75;;
23117;SDS011;11728;50.624;6.014;2022-10-17T09:35:52;7.57;;;2.15;;
23117;SDS011;11728;50.624;6.014;2022-10-17T09:41:17;4.53;;;2.00;;
23117;SDS011;11728;50.624;6.014;2022-10-17T09:46:46;6.20;;;2.28;;
23117;SDS011;11728;50.624;6.014;2022-10-17T09:52:15;7.70;;;2.35;;
23117;SDS011;11728;50.624;6.014;2022-10-17T09:57:58;5.05;;;2.20;;
23117;SDS011;11728;50.624;6.014;2022-10-17T10:03:22;5.93;;;2.38;;
23117;SDS011;11728;50.624;6.014;2022-10-17T10:08:54;7.03;;;2.28;;
23117;SDS011;11728;50.624;6.014;2022-10-17T10:19:48;7.53;;;3.03;;
23117;SDS011;11728;50.624;6.014;2022-10-17T10:30:35;6.55;;;2.40;;
23117;SDS011;11728;50.624;6.014;2022-10-17T10:35:57;7.07;;;2.35;;
23117;SDS011;11728;50.624;6.014;2022-10-17T10:41:21;8.38;;;2.70;;
23117;SDS011;11728;50.624;6.014;2022-10-17T10:46:42;7.38;;;2.40;;
23117;SDS011;11728;50.624;6.014;2022-10-17T10:52:03;5.45;;;2.40;;
23117;SDS011;11728;50.624;6.014;2022-10-17T10:57:27;7.13;;;2.42;;
23117;SDS011;11728;50.624;6.014;2022-10-17T11:08:39;5.18;;;1.63;;
23117;SDS011;11728;50.624;6.014;2022-10-17T11:19:37;6.68;;;1.90;;
23117;SDS011;11728;50.624;6.014;2022-10-17T11:25:05;10.70;;;2.60;;
23117;SDS011;11728;50.624;6.014;2022-10-17T11:30:43;9.55;;;2.15;;
23117;SDS011;11728;50.624;6.014;2022-10-17T11:36:05;7.47;;;2.20;;
23117;SDS011;11728;50.624;6.014;2022-10-17T11:46:55;6.07;;;2.15;;
23117;SDS011;11728;50.624;6.014;2022-10-17T12:20:40;6.90;;;1.77;;
23117;SDS011;11728;50.624;6.014;2022-10-17T12:26:02;8.88;;;1.80;;
23117;SDS011;11728;50.624;6.014;2022-10-17T12:31:25;8.60;;;1.98;;
23117;SDS011;11728;50.624;6.014;2022-10-17T12:36:46;6.85;;;2.28;;
23117;SDS011;11728;50.624;6.014;2022-10-17T12:42:27;8.88;;;2.00;;
23117;SDS011;11728;50.624;6.014;2022-10-17T12:47:49;7.93;;;2.00;;
23117;SDS011;11728;50.624;6.014;2022-10-17T12:53:10;3.65;;;1.65;;
23117;SDS011;11728;50.624;6.014;2022-10-17T12:58:36;7.22;;;2.25;;
23117;SDS011;11728;50.624;6.014;2022-10-17T13:04:02;8.25;;;1.92;;
23117;SDS011;11728;50.624;6.014;2022-10-17T13:09:32;6.93;;;1.80;;
23117;SDS011;11728;50.624;6.014;2022-10-17T13:14:56;7.82;;;2.08;;
23117;SDS011;11728;50.624;6.014;2022-10-17T13:20:20;5.05;;;1.70;;
23117;SDS011;11728;50.624;6.014;2022-10-17T13:25:44;12.15;;;3.03;;
23117;SDS011;11728;50.624;6.014;2022-10-17T13:31:05;9.77;;;1.98;;
23117;SDS011;11728;50.624;6.014;2022-10-17T13:36:28;10.85;;;2.10;;
23117;SDS011;11728;50.624;6.014;2022-10-17T13:41:51;5.88;;;1.77;;
23117;SDS011;11728;50.624;6.014;2022-10-17T13:47:20;15.20;;;2.90;;
23117;SDS011;11728;50.624;6.014;2022-10-17T13:52:43;4.50;;;1.85;;
23117;SDS011;11728;50.624;6.014;2022-10-17T13:58:16;7.80;;;2.30;;
23117;SDS011;11728;50.624;6.014;2022-10-17T14:03:37;6.57;;;2.80;;
23117;SDS011;11728;50.624;6.014;2022-10-17T14:09:05;6.85;;;2.15;;
23117;SDS011;11728;50.624;6.014;2022-10-17T14:14:36;6.80;;;2.40;;
23117;SDS011;11728;50.624;6.014;2022-10-17T14:20:02;6.90;;;2.42;;
23117;SDS011;11728;50.624;6.014;2022-10-17T14:25:28;6.65;;;2.10;;
23117;SDS011;11728;50.624;6.014;2022-10-17T14:30:52;8.23;;;2.40;;
23117;SDS011;11728;50.624;6.014;2022-10-17T14:36:14;7.70;;;2.33;;
23117;SDS011;11728;50.624;6.014;2022-10-17T14:41:36;10.35;;;2.50;;
23117;SDS011;11728;50.624;6.014;2022-10-17T14:47:03;9.88;;;2.90;;
23117;SDS011;11728;50.624;6.014;2022-10-17T14:52:27;6.68;;;2.70;;
23117;SDS011;11728;50.624;6.014;2022-10-17T14:57:49;9.70;;;2.72;;
23117;SDS011;11728;50.624;6.014;2022-10-17T15:03:10;8.48;;;2.70;;
23117;SDS011;11728;50.624;6.014;2022-10-17T15:08:30;6.78;;;2.70;;
23117;SDS011;11728;50.624;6.014;2022-10-17T15:13:51;10.10;;;2.88;;
23117;SDS011;11728;50.624;6.014;2022-10-17T15:19:12;7.30;;;3.10;;
23117;SDS011;11728;50.624;6.014;2022-10-17T15:24:33;9.15;;;3.20;;
23117;SDS011;11728;50.624;6.014;2022-10-17T15:29:54;9.68;;;3.55;;
23117;SDS011;11728;50.624;6.014;2022-10-17T15:35:15;11.48;;;3.70;;
23117;SDS011;11728;50.624;6.014;2022-10-17T15:40:37;12.07;;;4.78;;
23117;SDS011;11728;50.624;6.014;2022-10-17T15:46:00;10.90;;;4.20;;
23117;SDS011;11728;50.624;6.014;2022-10-17T15:51:21;10.18;;;4.40;;
23117;SDS011;11728;50.624;6.014;2022-10-17T15:56:45;14.50;;;5.28;;
23117;SDS011;11728;50.624;6.014;2022-10-17T16:02:11;12.70;;;5.03;;
23117;SDS011;11728;50.624;6.014;2022-10-17T16:07:33;10.18;;;4.47;;
23117;SDS011;11728;50.624;6.014;2022-10-17T16:12:54;15.70;;;5.75;;
23117;SDS011;11728;50.624;6.014;2022-10-17T16:18:15;11.18;;;5.38;;
23117;SDS011;11728;50.624;6.014;2022-10-17T16:23:36;7.45;;;5.05;;
23117;SDS011;11728;50.624;6.014;2022-10-17T16:28:57;10.23;;;5.20;;
23117;SDS011;11728;50.624;6.014;2022-10-17T16:34:22;8.15;;;5.55;;
23117;SDS011;11728;50.624;6.014;2022-10-17T16:39:42;12.55;;;6.93;;
23117;SDS011;11728;50.624;6.014;2022-10-17T16:45:08;12.27;;;9.27;;
23117;SDS011;11728;50.624;6.014;2022-10-17T16:50:37;15.10;;;7.88;;
23117;SDS011;11728;50.624;6.014;2022-10-17T16:56:02;12.73;;;7.75;;
23117;SDS011;11728;50.624;6.014;2022-10-17T17:01:24;10.57;;;6.45;;
23117;SDS011;11728;50.624;6.014;2022-10-17T17:06:45;4.95;;;2.80;;
23117;SDS011;11728;50.624;6.014;2022-10-17T17:12:06;4.13;;;2.80;;
23117;SDS011;11728;50.624;6.014;2022-10-17T17:17:27;6.05;;;2.80;;
23117;SDS011;11728;50.624;6.014;2022-10-17T17:22:48;4.10;;;2.40;;
23117;SDS011;11728;50.624;6.014;2022-10-17T17:28:10;7.07;;;2.67;;
23117;SDS011;11728;50.624;6.014;2022-10-17T17:33:31;4.65;;;3.03;;
23117;SDS011;11728;50.624;6.014;2022-10-17T17:38:53;5.65;;;3.13;;
23117;SDS011;11728;50.624;6.014;2022-10-17T17:44:16;7.45;;;3.53;;
23117;SDS011;11728;50.624;6.014;2022-10-17T17:49:36;7.85;;;3.95;;
23117;SDS011;11728;50.624;6.014;2022-10-17T17:54:57;8.82;;;4.00;;
23117;SDS011;11728;50.624;6.014;2022-10-17T18:00:18;4.50;;;3.00;;
23117;SDS011;11728;50.624;6.014;2022-10-17T18:05:39;7.07;;;3.83;;
23117;SDS011;11728;50.624;6.014;2022-10-17T18:11:00;7.70;;;4.00;;
23117;SDS011;11728;50.624;6.014;2022-10-17T18:16:22;6.57;;;3.50;;
23117;SDS011;11728;50.624;6.014;2022-10-17T18:21:43;7.13;;;3.75;;
23117;SDS011;11728;50.624;6.014;2022-10-17T18:27:04;5.93;;;4.10;;
23117;SDS011;11728;50.624;6.014;2022-10-17T18:32:25;8.43;;;5.10;;
23117;SDS011;11728;50.624;6.014;2022-10-17T18:37:49;6.72;;;4.60;;
23117;SDS011;11728;50.624;6.014;2022-10-17T18:43:10;6.60;;;4.20;;
23117;SDS011;11728;50.624;6.014;2022-10-17T18:48:31;7.50;;;4.65;;
23117;SDS011;11728;50.624;6.014;2022-10-17T18:53:54;7.53;;;4.80;;
23117;SDS011;11728;50.624;6.014;2022-10-17T18:59:18;7.88;;;5.03;;
23117;SDS011;11728;50.624;6.014;2022-10-17T19:04:39;9.68;;;6.75;;
23117;SDS011;11728;50.624;6.014;2022-10-17T19:10:00;8.93;;;6.45;;
23117;SDS011;11728;50.624;6.014;2022-10-17T19:15:21;7.63;;;4.85;;
23117;SDS011;11728;50.624;6.014;2022-10-17T19:20:42;11.35;;;5.13;;
23117;SDS011;11728;50.624;6.014;2022-10-17T19:26:09;10.18;;;6.13;;
23117;SDS011;11728;50.624;6.014;2022-10-17T19:31:32;7.13;;;5.28;;
23117;SDS011;11728;50.624;6.014;2022-10-17T19:36:54;6.90;;;4.95;;
23117;SDS011;11728;50.624;6.014;2022-10-17T19:42:15;7.13;;;4.78;;
23117;SDS011;11728;50.624;6.014;2022-10-17T19:47:36;9.57;;;4.97;;
23117;SDS011;11728;50.624;6.014;2022-10-17T19:52:58;8.13;;;5.20;;
23117;SDS011;11728;50.624;6.014;2022-10-17T19:58:19;6.13;;;5.43;;
23117;SDS011;11728;50.624;6.014;2022-10-17T20:03:40;9.88;;;5.53;;
23117;SDS011;11728;50.624;6.014;2022-10-17T20:09:03;9.70;;;5.35;;
23117;SDS011;11728;50.624;6.014;2022-10-17T20:14:25;6.88;;;4.53;;
23117;SDS011;11728;50.624;6.014;2022-10-17T20:19:46;8.13;;;5.05;;
23117;SDS011;11728;50.624;6.014;2022-10-17T20:25:07;6.75;;;4.70;;
23117;SDS011;11728;50.624;6.014;2022-10-17T20:30:28;10.13;;;5.57;;
23117;SDS011;11728;50.624;6.014;2022-10-17T20:35:49;8.32;;;5.38;;
23117;SDS011;11728;50.624;6.014;2022-10-17T20:41:10;6.82;;;5.38;;
23117;SDS011;11728;50.624;6.014;2022-10-17T20:46:31;8.20;;;5.57;;
23117;SDS011;11728;50.624;6.014;2022-10-17T20:51:52;9.93;;;6.20;;
23117;SDS011;11728;50.624;6.014;2022-10-17T20:57:13;11.25;;;6.90;;
23117;SDS011;11728;50.624;6.014;2022-10-17T21:02:34;8.30;;;5.80;;
23117;SDS011;11728;50.624;6.014;2022-10-17T21:07:55;9.02;;;5.45;;
23117;SDS011;11728;50.624;6.014;2022-10-17T21:13:15;7.20;;;4.97;;
23117;SDS011;11728;50.624;6.014;2022-10-17T21:18:36;7.72;;;5.20;;
23117;SDS011;11728;50.624;6.014;2022-10-17T21:23:59;8.05;;;5.28;;
23117;SDS011;11728;50.624;6.014;2022-10-17T21:29:21;11.80;;;6.72;;
23117;SDS011;11728;50.624;6.014;2022-10-17T21:34:43;9.48;;;6.63;;
23117;SDS011;11728;50.624;6.014;2022-10-17T21:40:04;11.57;;;6.85;;
23117;SDS011;11728;50.624;6.014;2022-10-17T21:45:25;12.65;;;6.82;;
23117;SDS011;11728;50.624;6.014;2022-10-17T21:50:47;8.02;;;5.88;;
23117;SDS011;11728;50.624;6.014;2022-10-17T21:56:09;54.15;;;7.78;;
23117;SDS011;11728;50.624;6.014;2022-10-17T22:01:33;10.38;;;6.35;;
23117;SDS011;11728;50.624;6.014;2022-10-17T22:06:55;7.38;;;5.70;;
23117;SDS011;11728;50.624;6.014;2022-10-17T22:12:16;10.45;;;6.38;;
23117;SDS011;11728;50.624;6.014;2022-10-17T22:17:37;8.63;;;6.03;;
23117;SDS011;11728;50.624;6.014;2022-10-17T22:22:58;10.32;;;5.50;;
23117;SDS011;11728;50.624;6.014;2022-10-17T22:28:19;9.88;;;6.18;;
23117;SDS011;11728;50.624;6.014;2022-10-17T22:33:40;7.43;;;5.32;;
23117;SDS011;11728;50.624;6.014;2022-10-17T22:39:01;9.07;;;5.25;;
23117;SDS011;11728;50.624;6.014;2022-10-17T22:44:22;5.82;;;4.60;;
23117;SDS011;11728;50.624;6.014;2022-10-17T22:49:43;5.72;;;4.10;;
23117;SDS011;11728;50.624;6.014;2022-10-17T22:55:04;6.05;;;3.40;;
23117;SDS011;11728;50.624;6.014;2022-10-17T23:00:28;5.25;;;3.53;;
23117;SDS011;11728;50.624;6.014;2022-10-17T23:05:49;6.78;;;3.95;;
23117;SDS011;11728;50.624;6.014;2022-10-17T23:11:10;7.65;;;5.07;;
23117;SDS011;11728;50.624;6.014;2022-10-17T23:16:32;7.68;;;4.18;;
23117;SDS011;11728;50.624;6.014;2022-10-17T23:21:53;9.30;;;4.05;;
23117;SDS011;11728;50.624;6.014;2022-10-17T23:27:13;5.78;;;3.38;;
23117;SDS011;11728;50.624;6.014;2022-10-17T23:32:34;8.18;;;3.80;;
23117;SDS011;11728;50.624;6.014;2022-10-17T23:37:55;5.07;;;3.55;;
23117;SDS011;11728;50.624;6.014;2022-10-17T23:43:16;6.07;;;3.15;;
23117;SDS011;11728;50.624;6.014;2022-10-17T23:48:37;7.47;;;3.30;;
23117;SDS011;11728;50.624;6.014;2022-10-17T23:53:58;6.43;;;3.25;;
23117;SDS011;11728;50.624;6.014;2022-10-17T23:59:19;5.93;;;3.08;;
